sensor_id;sensor_type;location;lat;lon;timestamp;P1;durP1;ratioP1;P2;durP2;ratioP2
39502;SDS011;26970;49.900;10.774;2023-07-28T00:02:23;7.28;;;5.90;;
39502;SDS011;26970;49.900;10.774;2023-07-28T00:04:48;7.90;;;5.95;;
39502;SDS011;26970;49.900;10.774;2023-07-28T00:07:14;8.68;;;5.53;;
39502;SDS011;26970;49.900;10.774;2023-07-28T00:09:39;9.93;;;4.82;;
39502;SDS011;26970;49.900;10.774;2023-07-28T00:12:05;6.95;;;5.20;;
39502;SDS011;26970;49.900;10.774;2023-07-28T00:14:31;7.18;;;5.30;;
39502;SDS011;26970;49.900;10.774;2023-07-28T00:16:57;7.13;;;4.90;;
39502;SDS011;26970;49.900;10.774;2023-07-28T00:19:23;7.78;;;4.90;;
39502;SDS011;26970;49.900;10.774;2023-07-28T00:21:49;7.65;;;5.13;;
39502;SDS011;26970;49.900;10.774;2023-07-28T00:24:15;6.40;;;4.95;;
39502;SDS011;26970;49.900;10.774;2023-07-28T00:26:41;8.05;;;5.00;;
39502;SDS011;26970;49.900;10.774;2023-07-28T00:29:06;7.30;;;4.43;;
39502;SDS011;26970;49.900;10.774;2023-07-28T00:31:32;7.15;;;4.20;;
39502;SDS011;26970;49.900;10.774;2023-07-28T00:33:58;7.25;;;4.80;;
39502;SDS011;26970;49.900;10.774;2023-07-28T00:36:24;6.38;;;3.90;;
39502;SDS011;26970;49.900;10.774;2023-07-28T00:38:50;6.70;;;4.00;;
39502;SDS011;26970;49.900;10.774;2023-07-28T00:41:15;5.55;;;4.15;;
39502;SDS011;26970;49.900;10.774;2023-07-28T00:43:41;5.60;;;3.75;;
39502;SDS011;26970;49.900;10.774;2023-07-28T00:46:06;6.28;;;3.58;;
39502;SDS011;26970;49.900;10.774;2023-07-28T00:48:34;5.65;;;3.20;;
39502;SDS011;26970;49.900;10.774;2023-07-28T00:51:00;5.00;;;3.33;;
39502;SDS011;26970;49.900;10.774;2023-07-28T00:53:25;4.95;;;3.60;;
39502;SDS011;26970;49.900;10.774;2023-07-28T00:55:52;4.10;;;3.22;;
39502;SDS011;26970;49.900;10.774;2023-07-28T00:58:18;6.20;;;3.70;;
39502;SDS011;26970;49.900;10.774;2023-07-28T01:00:44;3.92;;;2.90;;
39502;SDS011;26970;49.900;10.774;2023-07-28T01:03:09;3.70;;;2.83;;
39502;SDS011;26970;49.900;10.774;2023-07-28T01:05:48;4.38;;;3.40;;
39502;SDS011;26970;49.900;10.774;2023-07-28T01:08:19;4.07;;;2.90;;
39502;SDS011;26970;49.900;10.774;2023-07-28T01:10:55;4.15;;;3.10;;
39502;SDS011;26970;49.900;10.774;2023-07-28T01:13:20;6.80;;;3.45;;
39502;SDS011;26970;49.900;10.774;2023-07-28T01:15:46;4.97;;;3.17;;
39502;SDS011;26970;49.900;10.774;2023-07-28T01:18:11;4.82;;;3.28;;
39502;SDS011;26970;49.900;10.774;2023-07-28T01:20:37;6.75;;;3.42;;
39502;SDS011;26970;49.900;10.774;2023-07-28T01:23:14;4.78;;;3.47;;
39502;SDS011;26970;49.900;10.774;2023-07-28T01:25:50;6.18;;;3.60;;
39502;SDS011;26970;49.900;10.774;2023-07-28T01:28:25;4.38;;;3.35;;
39502;SDS011;26970;49.900;10.774;2023-07-28T01:30:52;6.20;;;3.53;;
39502;SDS011;26970;49.900;10.774;2023-07-28T01:33:17;7.60;;;3.50;;
39502;SDS011;26970;49.900;10.774;2023-07-28T01:35:43;3.83;;;2.78;;
39502;SDS011;26970;49.900;10.774;2023-07-28T01:38:09;5.40;;;3.05;;
39502;SDS011;26970;49.900;10.774;2023-07-28T01:40:35;4.63;;;3.60;;
39502;SDS011;26970;49.900;10.774;2023-07-28T01:43:00;6.13;;;3.47;;
39502;SDS011;26970;49.900;10.774;2023-07-28T01:45:26;6.25;;;3.75;;
39502;SDS011;26970;49.900;10.774;2023-07-28T01:47:51;5.55;;;3.70;;
39502;SDS011;26970;49.900;10.774;2023-07-28T01:50:17;5.50;;;3.17;;
39502;SDS011;26970;49.900;10.774;2023-07-28T01:52:42;4.53;;;3.03;;
39502;SDS011;26970;49.900;10.774;2023-07-28T01:55:08;7.40;;;3.67;;
39502;SDS011;26970;49.900;10.774;2023-07-28T01:57:34;5.22;;;3.53;;
39502;SDS011;26970;49.900;10.774;2023-07-28T02:00:00;8.40;;;3.83;;
39502;SDS011;26970;49.900;10.774;2023-07-28T02:02:28;5.75;;;4.20;;
39502;SDS011;26970;49.900;10.774;2023-07-28T02:04:53;4.88;;;3.40;;
39502;SDS011;26970;49.900;10.774;2023-07-28T02:07:19;5.10;;;3.72;;
39502;SDS011;26970;49.900;10.774;2023-07-28T02:09:44;4.82;;;3.55;;
39502;SDS011;26970;49.900;10.774;2023-07-28T02:12:10;5.22;;;3.70;;
39502;SDS011;26970;49.900;10.774;2023-07-28T02:14:35;5.57;;;3.55;;
39502;SDS011;26970;49.900;10.774;2023-07-28T02:17:01;6.35;;;3.50;;
39502;SDS011;26970;49.900;10.774;2023-07-28T02:19:26;4.90;;;3.70;;
39502;SDS011;26970;49.900;10.774;2023-07-28T02:21:52;5.63;;;3.75;;
39502;SDS011;26970;49.900;10.774;2023-07-28T02:24:17;4.88;;;3.65;;
39502;SDS011;26970;49.900;10.774;2023-07-28T02:26:43;5.82;;;3.65;;
39502;SDS011;26970;49.900;10.774;2023-07-28T02:29:08;5.47;;;3.97;;
39502;SDS011;26970;49.900;10.774;2023-07-28T02:31:34;6.25;;;3.90;;
39502;SDS011;26970;49.900;10.774;2023-07-28T02:33:59;5.18;;;3.75;;
39502;SDS011;26970;49.900;10.774;2023-07-28T02:36:25;5.57;;;3.75;;
39502;SDS011;26970;49.900;10.774;2023-07-28T02:38:50;7.10;;;3.92;;
39502;SDS011;26970;49.900;10.774;2023-07-28T02:41:16;6.57;;;3.63;;
39502;SDS011;26970;49.900;10.774;2023-07-28T02:43:41;5.43;;;3.78;;
39502;SDS011;26970;49.900;10.774;2023-07-28T02:46:07;9.10;;;3.60;;
39502;SDS011;26970;49.900;10.774;2023-07-28T02:48:32;5.28;;;3.70;;
39502;SDS011;26970;49.900;10.774;2023-07-28T02:50:58;7.65;;;4.05;;
39502;SDS011;26970;49.900;10.774;2023-07-28T02:53:23;8.15;;;4.20;;
39502;SDS011;26970;49.900;10.774;2023-07-28T02:55:49;6.43;;;4.30;;
39502;SDS011;26970;49.900;10.774;2023-07-28T02:58:15;7.15;;;3.72;;
39502;SDS011;26970;49.900;10.774;2023-07-28T03:00:41;5.55;;;4.10;;
39502;SDS011;26970;49.900;10.774;2023-07-28T03:03:08;8.18;;;4.03;;
39502;SDS011;26970;49.900;10.774;2023-07-28T03:05:36;8.07;;;4.15;;
39502;SDS011;26970;49.900;10.774;2023-07-28T03:08:02;5.63;;;3.88;;
39502;SDS011;26970;49.900;10.774;2023-07-28T03:10:27;4.55;;;3.70;;
39502;SDS011;26970;49.900;10.774;2023-07-28T03:12:53;6.75;;;4.38;;
39502;SDS011;26970;49.900;10.774;2023-07-28T03:15:19;5.82;;;3.85;;
39502;SDS011;26970;49.900;10.774;2023-07-28T03:17:47;7.03;;;4.15;;
39502;SDS011;26970;49.900;10.774;2023-07-28T03:20:12;4.53;;;3.45;;
39502;SDS011;26970;49.900;10.774;2023-07-28T03:22:38;8.13;;;3.88;;
39502;SDS011;26970;49.900;10.774;2023-07-28T03:25:04;8.07;;;3.58;;
39502;SDS011;26970;49.900;10.774;2023-07-28T03:27:29;5.93;;;3.42;;
39502;SDS011;26970;49.900;10.774;2023-07-28T03:29:55;6.53;;;3.38;;
39502;SDS011;26970;49.900;10.774;2023-07-28T03:32:20;5.93;;;3.83;;
39502;SDS011;26970;49.900;10.774;2023-07-28T03:34:46;5.07;;;3.50;;
39502;SDS011;26970;49.900;10.774;2023-07-28T03:37:12;6.07;;;3.53;;
39502;SDS011;26970;49.900;10.774;2023-07-28T03:39:37;6.38;;;3.10;;
39502;SDS011;26970;49.900;10.774;2023-07-28T03:42:03;4.22;;;3.03;;
39502;SDS011;26970;49.900;10.774;2023-07-28T03:44:28;4.43;;;3.10;;
39502;SDS011;26970;49.900;10.774;2023-07-28T03:46:54;5.03;;;3.20;;
39502;SDS011;26970;49.900;10.774;2023-07-28T03:49:20;6.40;;;2.97;;
39502;SDS011;26970;49.900;10.774;2023-07-28T03:51:45;3.90;;;2.95;;
39502;SDS011;26970;49.900;10.774;2023-07-28T03:54:11;4.38;;;3.25;;
39502;SDS011;26970;49.900;10.774;2023-07-28T03:56:37;4.97;;;3.00;;
39502;SDS011;26970;49.900;10.774;2023-07-28T03:59:02;3.78;;;2.75;;
39502;SDS011;26970;49.900;10.774;2023-07-28T04:01:28;5.10;;;3.17;;
39502;SDS011;26970;49.900;10.774;2023-07-28T04:03:53;4.68;;;3.00;;
39502;SDS011;26970;49.900;10.774;2023-07-28T04:06:19;6.65;;;3.00;;
39502;SDS011;26970;49.900;10.774;2023-07-28T04:09:03;7.32;;;3.28;;
39502;SDS011;26970;49.900;10.774;2023-07-28T04:11:29;5.25;;;2.80;;
39502;SDS011;26970;49.900;10.774;2023-07-28T04:13:54;4.05;;;3.22;;
39502;SDS011;26970;49.900;10.774;2023-07-28T04:16:20;4.60;;;3.10;;
39502;SDS011;26970;49.900;10.774;2023-07-28T04:18:45;4.05;;;2.90;;
39502;SDS011;26970;49.900;10.774;2023-07-28T04:21:11;4.97;;;3.00;;
39502;SDS011;26970;49.900;10.774;2023-07-28T04:23:36;4.97;;;2.70;;
39502;SDS011;26970;49.900;10.774;2023-07-28T04:26:02;4.00;;;2.90;;
39502;SDS011;26970;49.900;10.774;2023-07-28T04:28:27;5.60;;;2.95;;
39502;SDS011;26970;49.900;10.774;2023-07-28T04:30:53;4.50;;;2.97;;
39502;SDS011;26970;49.900;10.774;2023-07-28T04:33:18;4.28;;;2.97;;
39502;SDS011;26970;49.900;10.774;2023-07-28T04:35:44;5.63;;;2.88;;
39502;SDS011;26970;49.900;10.774;2023-07-28T04:38:09;3.80;;;2.67;;
39502;SDS011;26970;49.900;10.774;2023-07-28T04:40:35;5.35;;;2.55;;
39502;SDS011;26970;49.900;10.774;2023-07-28T04:43:00;3.85;;;2.55;;
39502;SDS011;26970;49.900;10.774;2023-07-28T04:45:26;3.85;;;2.85;;
39502;SDS011;26970;49.900;10.774;2023-07-28T04:47:51;5.15;;;3.03;;
39502;SDS011;26970;49.900;10.774;2023-07-28T04:50:18;3.83;;;2.67;;
39502;SDS011;26970;49.900;10.774;2023-07-28T04:52:43;3.65;;;2.45;;
39502;SDS011;26970;49.900;10.774;2023-07-28T04:55:09;4.28;;;2.85;;
39502;SDS011;26970;49.900;10.774;2023-07-28T04:57:34;4.80;;;2.78;;
39502;SDS011;26970;49.900;10.774;2023-07-28T05:00:00;3.60;;;2.33;;
39502;SDS011;26970;49.900;10.774;2023-07-28T05:02:25;4.00;;;2.60;;
39502;SDS011;26970;49.900;10.774;2023-07-28T05:04:51;3.85;;;2.47;;
39502;SDS011;26970;49.900;10.774;2023-07-28T05:07:16;3.53;;;2.38;;
39502;SDS011;26970;49.900;10.774;2023-07-28T05:09:42;3.60;;;2.50;;
39502;SDS011;26970;49.900;10.774;2023-07-28T05:12:09;4.20;;;2.42;;
39502;SDS011;26970;49.900;10.774;2023-07-28T05:14:35;3.90;;;2.33;;
39502;SDS011;26970;49.900;10.774;2023-07-28T05:17:01;4.75;;;2.30;;
39502;SDS011;26970;49.900;10.774;2023-07-28T05:19:26;4.65;;;2.38;;
39502;SDS011;26970;49.900;10.774;2023-07-28T05:21:52;4.38;;;1.88;;
39502;SDS011;26970;49.900;10.774;2023-07-28T05:24:17;4.43;;;1.88;;
39502;SDS011;26970;49.900;10.774;2023-07-28T05:26:43;2.85;;;2.13;;
39502;SDS011;26970;49.900;10.774;2023-07-28T05:29:08;4.03;;;2.10;;
39502;SDS011;26970;49.900;10.774;2023-07-28T05:31:34;3.85;;;2.08;;
39502;SDS011;26970;49.900;10.774;2023-07-28T05:33:59;3.35;;;1.90;;
39502;SDS011;26970;49.900;10.774;2023-07-28T05:36:25;3.20;;;2.08;;
39502;SDS011;26970;49.900;10.774;2023-07-28T05:38:50;2.63;;;1.83;;
39502;SDS011;26970;49.900;10.774;2023-07-28T05:41:18;4.32;;;2.00;;
39502;SDS011;26970;49.900;10.774;2023-07-28T05:43:44;2.83;;;2.00;;
39502;SDS011;26970;49.900;10.774;2023-07-28T05:46:10;3.65;;;1.90;;
39502;SDS011;26970;49.900;10.774;2023-07-28T05:48:35;2.13;;;1.70;;
39502;SDS011;26970;49.900;10.774;2023-07-28T05:51:01;3.80;;;1.90;;
39502;SDS011;26970;49.900;10.774;2023-07-28T05:53:26;2.58;;;1.85;;
39502;SDS011;26970;49.900;10.774;2023-07-28T05:55:52;2.50;;;1.58;;
39502;SDS011;26970;49.900;10.774;2023-07-28T05:58:17;2.85;;;1.80;;
39502;SDS011;26970;49.900;10.774;2023-07-28T06:00:43;2.55;;;1.73;;
39502;SDS011;26970;49.900;10.774;2023-07-28T06:03:11;2.42;;;1.65;;
39502;SDS011;26970;49.900;10.774;2023-07-28T06:05:40;4.88;;;2.00;;
39502;SDS011;26970;49.900;10.774;2023-07-28T06:08:06;2.97;;;1.70;;
39502;SDS011;26970;49.900;10.774;2023-07-28T06:10:31;2.65;;;2.08;;
39502;SDS011;26970;49.900;10.774;2023-07-28T06:12:57;4.25;;;1.98;;
39502;SDS011;26970;49.900;10.774;2023-07-28T06:15:23;2.83;;;1.85;;
39502;SDS011;26970;49.900;10.774;2023-07-28T06:17:48;2.97;;;1.90;;
39502;SDS011;26970;49.900;10.774;2023-07-28T06:20:14;3.30;;;1.83;;
39502;SDS011;26970;49.900;10.774;2023-07-28T06:22:39;2.10;;;1.83;;
39502;SDS011;26970;49.900;10.774;2023-07-28T06:25:05;2.95;;;1.92;;
39502;SDS011;26970;49.900;10.774;2023-07-28T06:27:32;2.60;;;1.90;;
39502;SDS011;26970;49.900;10.774;2023-07-28T06:29:57;3.50;;;2.10;;
39502;SDS011;26970;49.900;10.774;2023-07-28T06:32:23;4.40;;;2.00;;
39502;SDS011;26970;49.900;10.774;2023-07-28T06:34:49;5.75;;;2.30;;
39502;SDS011;26970;49.900;10.774;2023-07-28T06:37:15;2.47;;;1.80;;
39502;SDS011;26970;49.900;10.774;2023-07-28T06:39:40;3.08;;;1.83;;
39502;SDS011;26970;49.900;10.774;2023-07-28T06:42:06;3.58;;;1.73;;
39502;SDS011;26970;49.900;10.774;2023-07-28T06:44:32;3.75;;;2.13;;
39502;SDS011;26970;49.900;10.774;2023-07-28T06:46:58;2.80;;;1.75;;
39502;SDS011;26970;49.900;10.774;2023-07-28T06:49:23;3.38;;;1.67;;
39502;SDS011;26970;49.900;10.774;2023-07-28T06:51:49;4.63;;;1.85;;
39502;SDS011;26970;49.900;10.774;2023-07-28T06:54:14;2.63;;;1.60;;
39502;SDS011;26970;49.900;10.774;2023-07-28T06:56:40;2.75;;;1.60;;
39502;SDS011;26970;49.900;10.774;2023-07-28T06:59:06;3.90;;;2.00;;
39502;SDS011;26970;49.900;10.774;2023-07-28T07:01:32;4.10;;;2.00;;
39502;SDS011;26970;49.900;10.774;2023-07-28T07:03:58;2.80;;;1.60;;
39502;SDS011;26970;49.900;10.774;2023-07-28T07:06:24;2.00;;;1.52;;
39502;SDS011;26970;49.900;10.774;2023-07-28T07:08:50;2.55;;;1.95;;
39502;SDS011;26970;49.900;10.774;2023-07-28T07:11:15;2.55;;;2.03;;
39502;SDS011;26970;49.900;10.774;2023-07-28T07:13:41;3.38;;;1.80;;
39502;SDS011;26970;49.900;10.774;2023-07-28T07:16:13;2.47;;;1.60;;
39502;SDS011;26970;49.900;10.774;2023-07-28T07:18:42;2.15;;;1.77;;
39502;SDS011;26970;49.900;10.774;2023-07-28T07:21:08;2.88;;;1.67;;
39502;SDS011;26970;49.900;10.774;2023-07-28T07:23:35;2.53;;;1.88;;
39502;SDS011;26970;49.900;10.774;2023-07-28T07:26:01;4.65;;;1.77;;
39502;SDS011;26970;49.900;10.774;2023-07-28T07:28:26;2.95;;;1.80;;
39502;SDS011;26970;49.900;10.774;2023-07-28T07:30:53;3.55;;;1.95;;
39502;SDS011;26970;49.900;10.774;2023-07-28T07:33:19;3.78;;;2.10;;
39502;SDS011;26970;49.900;10.774;2023-07-28T07:35:45;2.97;;;2.10;;
39502;SDS011;26970;49.900;10.774;2023-07-28T07:38:10;3.70;;;2.20;;
39502;SDS011;26970;49.900;10.774;2023-07-28T07:40:36;3.75;;;2.00;;
39502;SDS011;26970;49.900;10.774;2023-07-28T07:43:02;2.80;;;2.10;;
39502;SDS011;26970;49.900;10.774;2023-07-28T07:45:29;3.22;;;2.10;;
39502;SDS011;26970;49.900;10.774;2023-07-28T07:47:58;4.13;;;2.15;;
39502;SDS011;26970;49.900;10.774;2023-07-28T07:50:24;3.22;;;2.30;;
39502;SDS011;26970;49.900;10.774;2023-07-28T07:52:49;3.38;;;2.10;;
39502;SDS011;26970;49.900;10.774;2023-07-28T07:55:15;2.47;;;1.88;;
39502;SDS011;26970;49.900;10.774;2023-07-28T07:57:41;2.85;;;2.00;;
39502;SDS011;26970;49.900;10.774;2023-07-28T08:00:06;4.60;;;2.20;;
39502;SDS011;26970;49.900;10.774;2023-07-28T08:02:33;3.38;;;2.05;;
39502;SDS011;26970;49.900;10.774;2023-07-28T08:04:59;4.25;;;2.75;;
39502;SDS011;26970;49.900;10.774;2023-07-28T08:07:25;2.75;;;2.10;;
39502;SDS011;26970;49.900;10.774;2023-07-28T08:09:50;4.28;;;2.47;;
39502;SDS011;26970;49.900;10.774;2023-07-28T08:12:16;4.85;;;2.60;;
39502;SDS011;26970;49.900;10.774;2023-07-28T08:14:42;4.32;;;2.70;;
39502;SDS011;26970;49.900;10.774;2023-07-28T08:17:09;5.20;;;2.80;;
39502;SDS011;26970;49.900;10.774;2023-07-28T08:19:34;4.03;;;2.65;;
39502;SDS011;26970;49.900;10.774;2023-07-28T08:22:00;4.85;;;2.42;;
39502;SDS011;26970;49.900;10.774;2023-07-28T08:24:28;3.33;;;2.50;;
39502;SDS011;26970;49.900;10.774;2023-07-28T08:26:54;3.88;;;3.00;;
39502;SDS011;26970;49.900;10.774;2023-07-28T08:29:19;3.92;;;2.50;;
39502;SDS011;26970;49.900;10.774;2023-07-28T08:31:45;2.85;;;2.35;;
39502;SDS011;26970;49.900;10.774;2023-07-28T08:34:11;3.60;;;2.70;;
39502;SDS011;26970;49.900;10.774;2023-07-28T08:36:37;5.18;;;2.20;;
39502;SDS011;26970;49.900;10.774;2023-07-28T08:39:03;3.50;;;2.58;;
39502;SDS011;26970;49.900;10.774;2023-07-28T08:41:30;4.45;;;2.20;;
39502;SDS011;26970;49.900;10.774;2023-07-28T08:43:55;2.45;;;1.88;;
39502;SDS011;26970;49.900;10.774;2023-07-28T08:46:22;3.17;;;2.03;;
39502;SDS011;26970;49.900;10.774;2023-07-28T08:48:48;3.30;;;1.80;;
39502;SDS011;26970;49.900;10.774;2023-07-28T08:51:14;2.42;;;1.80;;
39502;SDS011;26970;49.900;10.774;2023-07-28T08:53:39;2.97;;;1.80;;
39502;SDS011;26970;49.900;10.774;2023-07-28T08:56:05;3.28;;;1.52;;
39502;SDS011;26970;49.900;10.774;2023-07-28T08:58:31;2.65;;;1.80;;
39502;SDS011;26970;49.900;10.774;2023-07-28T09:00:57;1.98;;;1.75;;
39502;SDS011;26970;49.900;10.774;2023-07-28T09:03:25;4.00;;;2.00;;
39502;SDS011;26970;49.900;10.774;2023-07-28T09:05:53;3.78;;;1.83;;
39502;SDS011;26970;49.900;10.774;2023-07-28T09:08:26;3.00;;;1.70;;
39502;SDS011;26970;49.900;10.774;2023-07-28T09:10:51;2.80;;;1.63;;
39502;SDS011;26970;49.900;10.774;2023-07-28T09:13:19;5.57;;;1.90;;
39502;SDS011;26970;49.900;10.774;2023-07-28T09:15:45;2.55;;;1.80;;
39502;SDS011;26970;49.900;10.774;2023-07-28T09:18:12;2.35;;;1.55;;
39502;SDS011;26970;49.900;10.774;2023-07-28T09:20:40;2.42;;;1.80;;
39502;SDS011;26970;49.900;10.774;2023-07-28T09:23:07;3.03;;;1.90;;
39502;SDS011;26970;49.900;10.774;2023-07-28T09:25:33;5.10;;;2.08;;
39502;SDS011;26970;49.900;10.774;2023-07-28T09:28:01;2.20;;;1.80;;
39502;SDS011;26970;49.900;10.774;2023-07-28T09:30:42;3.50;;;2.17;;
39502;SDS011;26970;49.900;10.774;2023-07-28T09:33:12;4.38;;;1.70;;
39502;SDS011;26970;49.900;10.774;2023-07-28T09:35:48;2.30;;;1.73;;
39502;SDS011;26970;49.900;10.774;2023-07-28T09:38:14;2.40;;;1.90;;
39502;SDS011;26970;49.900;10.774;2023-07-28T09:40:41;7.70;;;1.92;;
39502;SDS011;26970;49.900;10.774;2023-07-28T09:43:07;3.72;;;2.25;;
39502;SDS011;26970;49.900;10.774;2023-07-28T09:45:32;2.13;;;1.60;;
39502;SDS011;26970;49.900;10.774;2023-07-28T09:47:59;5.88;;;2.10;;
39502;SDS011;26970;49.900;10.774;2023-07-28T09:50:27;3.50;;;1.80;;
39502;SDS011;26970;49.900;10.774;2023-07-28T09:52:58;4.35;;;1.98;;
39502;SDS011;26970;49.900;10.774;2023-07-28T09:55:28;2.08;;;1.80;;
39502;SDS011;26970;49.900;10.774;2023-07-28T09:57:54;3.83;;;1.73;;
39502;SDS011;26970;49.900;10.774;2023-07-28T10:00:22;3.85;;;1.70;;
39502;SDS011;26970;49.900;10.774;2023-07-28T10:02:48;5.95;;;1.80;;
39502;SDS011;26970;49.900;10.774;2023-07-28T10:05:15;2.20;;;1.63;;
39502;SDS011;26970;49.900;10.774;2023-07-28T10:07:42;1.92;;;1.60;;
39502;SDS011;26970;49.900;10.774;2023-07-28T10:10:09;2.13;;;1.60;;
39502;SDS011;26970;49.900;10.774;2023-07-28T10:15:11;5.50;;;1.77;;
39502;SDS011;26970;49.900;10.774;2023-07-28T10:17:41;1.80;;;1.50;;
39502;SDS011;26970;49.900;10.774;2023-07-28T10:20:26;2.45;;;1.70;;
39502;SDS011;26970;49.900;10.774;2023-07-28T10:23:16;1.35;;;1.15;;
39502;SDS011;26970;49.900;10.774;2023-07-28T10:25:44;2.70;;;1.60;;
39502;SDS011;26970;49.900;10.774;2023-07-28T10:28:26;1.45;;;1.23;;
39502;SDS011;26970;49.900;10.774;2023-07-28T10:31:03;1.92;;;1.50;;
39502;SDS011;26970;49.900;10.774;2023-07-28T10:33:32;2.47;;;1.60;;
39502;SDS011;26970;49.900;10.774;2023-07-28T10:36:11;1.55;;;1.30;;
39502;SDS011;26970;49.900;10.774;2023-07-28T10:39:00;2.63;;;1.60;;
39502;SDS011;26970;49.900;10.774;2023-07-28T10:41:26;2.17;;;1.60;;
39502;SDS011;26970;49.900;10.774;2023-07-28T10:43:51;2.53;;;1.60;;
39502;SDS011;26970;49.900;10.774;2023-07-28T10:46:17;3.88;;;1.70;;
39502;SDS011;26970;49.900;10.774;2023-07-28T10:48:46;2.47;;;1.70;;
39502;SDS011;26970;49.900;10.774;2023-07-28T10:51:22;1.48;;;1.35;;
39502;SDS011;26970;49.900;10.774;2023-07-28T10:53:55;2.72;;;1.95;;
39502;SDS011;26970;49.900;10.774;2023-07-28T10:56:21;1.95;;;1.60;;
39502;SDS011;26970;49.900;10.774;2023-07-28T10:58:46;2.83;;;1.80;;
39502;SDS011;26970;49.900;10.774;2023-07-28T11:01:20;2.20;;;1.48;;
39502;SDS011;26970;49.900;10.774;2023-07-28T11:03:46;3.80;;;1.70;;
39502;SDS011;26970;49.900;10.774;2023-07-28T11:06:11;2.00;;;1.80;;
39502;SDS011;26970;49.900;10.774;2023-07-28T11:08:38;5.53;;;1.60;;
39502;SDS011;26970;49.900;10.774;2023-07-28T11:11:04;1.85;;;1.48;;
39502;SDS011;26970;49.900;10.774;2023-07-28T11:13:30;1.45;;;1.30;;
39502;SDS011;26970;49.900;10.774;2023-07-28T11:15:57;3.17;;;1.42;;
39502;SDS011;26970;49.900;10.774;2023-07-28T11:18:24;3.08;;;1.52;;
39502;SDS011;26970;49.900;10.774;2023-07-28T11:20:51;1.50;;;1.40;;
39502;SDS011;26970;49.900;10.774;2023-07-28T11:23:16;6.32;;;1.75;;
39502;SDS011;26970;49.900;10.774;2023-07-28T11:25:42;4.10;;;1.58;;
39502;SDS011;26970;49.900;10.774;2023-07-28T11:28:09;1.52;;;1.40;;
39502;SDS011;26970;49.900;10.774;2023-07-28T11:30:35;3.28;;;1.55;;
39502;SDS011;26970;49.900;10.774;2023-07-28T11:33:08;3.40;;;1.40;;
39502;SDS011;26970;49.900;10.774;2023-07-28T11:35:35;2.85;;;1.60;;
39502;SDS011;26970;49.900;10.774;2023-07-28T11:38:02;3.90;;;1.42;;
39502;SDS011;26970;49.900;10.774;2023-07-28T11:40:28;4.20;;;1.90;;
39502;SDS011;26970;49.900;10.774;2023-07-28T11:42:54;2.15;;;1.60;;
39502;SDS011;26970;49.900;10.774;2023-07-28T11:45:20;4.60;;;1.60;;
39502;SDS011;26970;49.900;10.774;2023-07-28T11:50:27;3.55;;;1.38;;
39502;SDS011;26970;49.900;10.774;2023-07-28T11:52:55;1.75;;;1.50;;
39502;SDS011;26970;49.900;10.774;2023-07-28T11:55:22;3.20;;;1.55;;
39502;SDS011;26970;49.900;10.774;2023-07-28T11:57:48;3.58;;;1.48;;
39502;SDS011;26970;49.900;10.774;2023-07-28T12:00:14;2.30;;;1.60;;
39502;SDS011;26970;49.900;10.774;2023-07-28T12:02:43;2.13;;;1.60;;
39502;SDS011;26970;49.900;10.774;2023-07-28T12:05:13;2.75;;;1.48;;
39502;SDS011;26970;49.900;10.774;2023-07-28T12:07:39;2.88;;;1.77;;
39502;SDS011;26970;49.900;10.774;2023-07-28T12:10:06;2.33;;;1.50;;
39502;SDS011;26970;49.900;10.774;2023-07-28T12:12:40;2.50;;;1.73;;
39502;SDS011;26970;49.900;10.774;2023-07-28T12:15:25;1.50;;;1.33;;
39502;SDS011;26970;49.900;10.774;2023-07-28T12:20:41;2.08;;;1.50;;
39502;SDS011;26970;49.900;10.774;2023-07-28T12:23:19;2.35;;;1.85;;
39502;SDS011;26970;49.900;10.774;2023-07-28T12:25:45;2.22;;;1.50;;
39502;SDS011;26970;49.900;10.774;2023-07-28T12:28:12;2.47;;;1.70;;
39502;SDS011;26970;49.900;10.774;2023-07-28T12:30:38;3.17;;;1.60;;
39502;SDS011;26970;49.900;10.774;2023-07-28T12:33:04;5.18;;;1.70;;
39502;SDS011;26970;49.900;10.774;2023-07-28T12:35:31;2.28;;;1.60;;
39502;SDS011;26970;49.900;10.774;2023-07-28T12:37:59;2.65;;;1.80;;
39502;SDS011;26970;49.900;10.774;2023-07-28T12:40:33;2.00;;;1.55;;
39502;SDS011;26970;49.900;10.774;2023-07-28T12:42:59;2.63;;;2.00;;
39502;SDS011;26970;49.900;10.774;2023-07-28T12:45:26;2.45;;;1.70;;
39502;SDS011;26970;49.900;10.774;2023-07-28T12:47:52;2.33;;;1.77;;
39502;SDS011;26970;49.900;10.774;2023-07-28T12:50:18;2.58;;;1.90;;
39502;SDS011;26970;49.900;10.774;2023-07-28T12:52:48;2.75;;;1.85;;
39502;SDS011;26970;49.900;10.774;2023-07-28T12:55:14;4.13;;;1.90;;
39502;SDS011;26970;49.900;10.774;2023-07-28T12:57:40;2.88;;;1.98;;
39502;SDS011;26970;49.900;10.774;2023-07-28T13:00:06;2.53;;;1.80;;
39502;SDS011;26970;49.900;10.774;2023-07-28T13:02:38;2.28;;;1.85;;
39502;SDS011;26970;49.900;10.774;2023-07-28T13:05:10;3.10;;;1.90;;
39502;SDS011;26970;49.900;10.774;2023-07-28T13:07:36;1.73;;;1.50;;
39502;SDS011;26970;49.900;10.774;2023-07-28T13:10:03;4.28;;;1.95;;
39502;SDS011;26970;49.900;10.774;2023-07-28T13:12:29;2.55;;;1.70;;
39502;SDS011;26970;49.900;10.774;2023-07-28T13:14:55;2.30;;;1.60;;
39502;SDS011;26970;49.900;10.774;2023-07-28T13:17:20;2.10;;;1.77;;
39502;SDS011;26970;49.900;10.774;2023-07-28T13:19:46;2.90;;;1.80;;
39502;SDS011;26970;49.900;10.774;2023-07-28T13:22:11;2.78;;;1.88;;
39502;SDS011;26970;49.900;10.774;2023-07-28T13:24:37;3.00;;;2.00;;
39502;SDS011;26970;49.900;10.774;2023-07-28T13:27:03;3.53;;;1.80;;
39502;SDS011;26970;49.900;10.774;2023-07-28T13:29:29;3.28;;;1.85;;
39502;SDS011;26970;49.900;10.774;2023-07-28T13:31:57;3.22;;;1.98;;
39502;SDS011;26970;49.900;10.774;2023-07-28T13:34:25;2.33;;;1.80;;
39502;SDS011;26970;49.900;10.774;2023-07-28T13:36:50;2.58;;;1.88;;
39502;SDS011;26970;49.900;10.774;2023-07-28T13:39:16;4.60;;;1.73;;
39502;SDS011;26970;49.900;10.774;2023-07-28T13:41:46;2.35;;;1.80;;
39502;SDS011;26970;49.900;10.774;2023-07-28T13:44:12;2.38;;;1.73;;
39502;SDS011;26970;49.900;10.774;2023-07-28T13:46:37;2.42;;;1.80;;
39502;SDS011;26970;49.900;10.774;2023-07-28T13:49:06;2.40;;;1.70;;
39502;SDS011;26970;49.900;10.774;2023-07-28T13:51:31;2.13;;;1.50;;
39502;SDS011;26970;49.900;10.774;2023-07-28T13:53:57;2.47;;;1.80;;
39502;SDS011;26970;49.900;10.774;2023-07-28T13:56:22;2.70;;;1.80;;
39502;SDS011;26970;49.900;10.774;2023-07-28T13:58:48;1.77;;;1.50;;
39502;SDS011;26970;49.900;10.774;2023-07-28T14:01:19;3.58;;;1.50;;
39502;SDS011;26970;49.900;10.774;2023-07-28T14:03:49;2.13;;;1.80;;
39502;SDS011;26970;49.900;10.774;2023-07-28T14:06:14;2.30;;;1.70;;
39502;SDS011;26970;49.900;10.774;2023-07-28T14:08:42;3.00;;;2.00;;
39502;SDS011;26970;49.900;10.774;2023-07-28T14:11:11;2.97;;;1.73;;
39502;SDS011;26970;49.900;10.774;2023-07-28T14:13:37;4.05;;;1.70;;
39502;SDS011;26970;49.900;10.774;2023-07-28T14:16:05;3.00;;;1.60;;
39502;SDS011;26970;49.900;10.774;2023-07-28T14:18:34;3.38;;;1.83;;
39502;SDS011;26970;49.900;10.774;2023-07-28T14:21:07;1.65;;;1.48;;
39502;SDS011;26970;49.900;10.774;2023-07-28T14:23:36;2.53;;;1.88;;
39502;SDS011;26970;49.900;10.774;2023-07-28T14:26:16;2.53;;;1.63;;
39502;SDS011;26970;49.900;10.774;2023-07-28T14:28:49;4.40;;;1.80;;
39502;SDS011;26970;49.900;10.774;2023-07-28T14:31:18;2.08;;;1.77;;
39502;SDS011;26970;49.900;10.774;2023-07-28T14:33:47;3.92;;;1.70;;
39502;SDS011;26970;49.900;10.774;2023-07-28T14:36:12;3.30;;;1.60;;
39502;SDS011;26970;49.900;10.774;2023-07-28T14:38:38;2.78;;;1.70;;
39502;SDS011;26970;49.900;10.774;2023-07-28T14:41:06;2.25;;;1.67;;